Time;durP1;ratioP1;P1;durP2;ratioP2;P2;SDS_P1;SDS_P2;PMS_P1;PMS_P2;Temp;Humidity;BMP_temperature;BMP_pressure;BME280_temperature;BME280_humidity;BME280_pressure;Samples;Min_cycle;Max_cycle;Signal;HPM_P1;HPM_P2
2022/06/15 00:01:14;;;;;;;12.70;4.75;;;;;;;;;;5010427;28;98528;-72
2022/06/15 00:03:41;;;;;;;6.72;5.05;;;;;;;;;;5010229;28;98967;-72
2022/06/15 00:06:10;;;;;;;13.38;5.40;;;;;;;;;;5009524;28;100565;-72
2022/06/15 00:08:37;;;;;;;13.65;5.03;;;;;;;;;;5002654;28;98524;-72
2022/06/15 00:11:23;;;;;;;18.17;5.50;;;;;;;;;;5011814;28;100118;-72
2022/06/15 00:13:50;;;;;;;9.52;5.10;;;;;;;;;;5003243;28;100109;-72
2022/06/15 00:16:16;;;;;;;10.73;4.75;;;;;;;;;;5010727;28;98546;-72
2022/06/15 00:18:44;;;;;;;6.20;5.25;;;;;;;;;;5003836;28;101361;-72
2022/06/15 00:21:11;;;;;;;7.88;5.30;;;;;;;;;;5010176;28;98542;-72
2022/06/15 00:23:38;;;;;;;7.28;4.63;;;;;;;;;;5009797;28;99928;-72
2022/06/15 00:26:05;;;;;;;9.18;5.30;;;;;;;;;;5009313;28;100629;-72
2022/06/15 00:28:31;;;;;;;6.90;5.10;;;;;;;;;;5015768;28;98681;-71
2022/06/15 00:30:58;;;;;;;6.63;4.75;;;;;;;;;;5008619;28;101191;-72
2022/06/15 00:33:29;;;;;;;7.93;5.07;;;;;;;;;;5009250;28;99994;-73
2022/06/15 00:36:04;;;;;;;11.90;5.53;;;;;;;;;;5010263;28;98331;-72
2022/06/15 00:38:40;;;;;;;9.38;5.50;;;;;;;;;;5013211;28;98571;-72
2022/06/15 00:41:08;;;;;;;7.63;4.90;;;;;;;;;;5001793;28;98464;-72
2022/06/15 00:43:40;;;;;;;12.00;5.03;;;;;;;;;;5008705;28;100103;-72
2022/06/15 00:46:25;;;;;;;7.28;5.07;;;;;;;;;;5009769;28;100057;-72
2022/06/15 00:48:57;;;;;;;7.15;4.75;;;;;;;;;;5002367;28;98986;-72
2022/06/15 00:51:24;;;;;;;6.60;5.10;;;;;;;;;;5009960;28;98993;-72
2022/06/15 00:53:51;;;;;;;6.80;5.30;;;;;;;;;;5007025;28;99562;-72
2022/06/15 00:56:19;;;;;;;7.35;4.72;;;;;;;;;;5009751;28;98719;-72
2022/06/15 00:58:48;;;;;;;5.05;4.55;;;;;;;;;;5008343;28;101439;-72
2022/06/15 01:01:14;;;;;;;6.60;4.53;;;;;;;;;;5012435;28;98352;-72
2022/06/15 01:03:41;;;;;;;7.05;4.57;;;;;;;;;;5011618;28;98524;-72
2022/06/15 01:06:14;;;;;;;10.23;5.53;;;;;;;;;;5009758;28;99316;-72
2022/06/15 01:08:40;;;;;;;;;;;;;;;;;;5008469;28;100801;-72
2022/06/15 01:11:11;;;;;;;5.72;4.60;;;;;;;;;;5011263;28;99047;-72
2022/06/15 01:13:46;;;;;;;6.47;4.40;;;;;;;;;;5001301;28;99206;-72
2022/06/15 01:16:27;;;;;;;9.80;4.65;;;;;;;;;;5009599;28;99020;-72
2022/06/15 01:19:01;;;;;;;5.13;4.63;;;;;;;;;;5003890;28;98793;-72
2022/06/15 01:21:28;;;;;;;9.65;5.93;;;;;;;;;;5008942;28;99080;-72
2022/06/15 01:24:03;;;;;;;7.65;4.72;;;;;;;;;;5010436;28;98722;-72
2022/06/15 01:26:43;;;;;;;7.68;4.53;;;;;;;;;;5009416;28;98405;-72
2022/06/15 01:29:16;;;;;;;7.65;4.90;;;;;;;;;;5009112;28;99025;-72
2022/06/15 01:31:54;;;;;;;10.00;4.80;;;;;;;;;;5009369;28;99850;-72
2022/06/15 01:34:39;;;;;;;9.27;5.00;;;;;;;;;;5008828;28;99796;-72
2022/06/15 01:37:14;;;;;;;10.00;4.63;;;;;;;;;;5008422;28;99499;-72
2022/06/15 01:39:57;;;;;;;7.30;4.70;;;;;;;;;;5008840;28;98950;-72
2022/06/15 01:42:35;;;;;;;14.70;5.20;;;;;;;;;;5008444;28;98537;-72
2022/06/15 01:45:06;;;;;;;8.82;4.35;;;;;;;;;;5006868;28;98881;-72
2022/06/15 01:47:34;;;;;;;5.85;4.13;;;;;;;;;;5012452;28;98533;-72
2022/06/15 01:50:04;;;;;;;5.32;4.45;;;;;;;;;;5006913;28;98659;-72
2022/06/15 01:52:38;;;;;;;7.88;4.70;;;;;;;;;;5008082;28;101601;-72
2022/06/15 01:55:08;;;;;;;7.38;4.75;;;;;;;;;;5009619;28;99565;-72
2022/06/15 01:57:36;;;;;;;6.97;4.40;;;;;;;;;;5006560;28;98660;-72
2022/06/15 02:00:02;;;;;;;15.50;4.65;;;;;;;;;;5007219;28;100677;-72
2022/06/15 02:02:32;;;;;;;5.32;4.47;;;;;;;;;;5008606;28;98795;-71
2022/06/15 02:05:08;;;;;;;9.40;4.78;;;;;;;;;;5006958;28;98965;-71
2022/06/15 02:07:40;;;;;;;5.15;4.55;;;;;;;;;;5000188;28;101295;-71
2022/06/15 02:10:22;;;;;;;6.15;4.22;;;;;;;;;;5013124;28;102015;-71
2022/06/15 02:12:56;;;;;;;8.55;5.13;;;;;;;;;;5002198;28;98997;-72
2022/06/15 02:15:25;;;;;;;6.88;4.80;;;;;;;;;;5010307;28;101166;-71
2022/06/15 02:18:01;;;;;;;5.10;4.70;;;;;;;;;;5011526;28;97898;-71
2022/06/15 02:20:29;;;;;;;6.35;4.63;;;;;;;;;;5012135;28;98506;-71
2022/06/15 02:22:59;;;;;;;7.10;4.80;;;;;;;;;;5010958;28;101795;-71
2022/06/15 02:25:30;;;;;;;6.88;4.60;;;;;;;;;;5009740;28;99340;-71
2022/06/15 02:27:56;;;;;;;6.18;4.75;;;;;;;;;;5011602;28;99610;-71
2022/06/15 02:30:25;;;;;;;7.20;4.93;;;;;;;;;;5010442;28;101917;-71
2022/06/15 02:33:19;;;;;;;5.35;4.65;;;;;;;;;;5013296;28;98593;-71
2022/06/15 02:35:46;;;;;;;7.68;4.68;;;;;;;;;;5009690;28;101368;-71
2022/06/15 02:38:15;;;;;;;8.85;4.80;;;;;;;;;;5010676;28;98654;-71
2022/06/15 02:40:42;;;;;;;8.88;4.55;;;;;;;;;;5009243;28;100192;-71
2022/06/15 02:43:12;;;;;;;5.18;4.78;;;;;;;;;;5010304;28;98607;-71
2022/06/15 02:45:42;;;;;;;7.90;5.13;;;;;;;;;;5011024;28;98665;-71
2022/06/15 02:48:10;;;;;;;8.88;4.50;;;;;;;;;;5008199;28;98891;-69
2022/06/15 02:50:45;;;;;;;6.30;4.38;;;;;;;;;;5004250;28;102710;-70
2022/06/15 02:53:14;;;;;;;7.20;4.63;;;;;;;;;;5012957;28;98656;-71
2022/06/15 02:55:42;;;;;;;6.03;4.38;;;;;;;;;;5009844;28;99281;-70
2022/06/15 02:58:11;;;;;;;6.10;4.38;;;;;;;;;;5009831;28;98583;-70
2022/06/15 03:00:48;;;;;;;5.45;4.75;;;;;;;;;;5009786;28;100052;-70
2022/06/15 03:03:18;;;;;;;8.52;4.65;;;;;;;;;;5009826;28;101707;-71
2022/06/15 03:05:47;;;;;;;8.77;4.63;;;;;;;;;;5009815;28;98566;-71
2022/06/15 03:08:16;;;;;;;7.35;4.60;;;;;;;;;;5009721;28;98913;-70
2022/06/15 03:10:45;;;;;;;11.43;4.28;;;;;;;;;;5009107;28;101200;-71
2022/06/15 03:13:12;;;;;;;5.40;4.55;;;;;;;;;;5010139;28;99200;-71
2022/06/15 03:15:39;;;;;;;5.22;4.53;;;;;;;;;;5012793;28;100855;-71
2022/06/15 03:18:05;;;;;;;14.15;5.03;;;;;;;;;;5010742;28;99812;-71
2022/06/15 03:20:32;;;;;;;7.70;5.13;;;;;;;;;;5009643;28;101147;-71
2022/06/15 03:22:58;;;;;;;5.57;4.40;;;;;;;;;;5010425;28;99217;-71
2022/06/15 03:25:24;;;;;;;9.60;5.47;;;;;;;;;;5010122;28;98664;-71
2022/06/15 03:27:54;;;;;;;8.38;4.55;;;;;;;;;;5010022;28;101198;-71
2022/06/15 03:30:23;;;;;;;8.57;4.72;;;;;;;;;;5008842;28;101923;-71
2022/06/15 03:32:57;;;;;;;6.28;4.47;;;;;;;;;;5010334;28;99045;-71
2022/06/15 03:35:34;;;;;;;6.35;4.38;;;;;;;;;;5009731;28;99377;-71
2022/06/15 03:38:19;;;;;;;8.90;5.00;;;;;;;;;;5025774;27;101892;-71
2022/06/15 03:41:15;;;;;;;6.57;4.82;;;;;;;;;;4998887;28;99812;-71
2022/06/15 03:43:42;;;;;;;4.68;4.15;;;;;;;;;;5009293;28;100097;-71
2022/06/15 03:46:13;;;;;;;5.55;4.60;;;;;;;;;;5001724;28;98577;-71
2022/06/15 03:48:41;;;;;;;6.72;4.72;;;;;;;;;;5009505;28;101527;-71
2022/06/15 03:51:07;;;;;;;5.53;4.72;;;;;;;;;;5008774;28;102118;-71
2022/06/15 03:53:44;;;;;;;6.97;4.53;;;;;;;;;;5009519;28;100004;-71
2022/06/15 03:56:11;;;;;;;7.70;5.00;;;;;;;;;;5009121;28;101397;-71
2022/06/15 03:58:38;;;;;;;6.88;4.57;;;;;;;;;;5008662;28;101628;-71
2022/06/15 04:01:05;;;;;;;7.18;4.60;;;;;;;;;;5012218;28;99120;-71
2022/06/15 04:03:32;;;;;;;6.80;4.95;;;;;;;;;;5007989;28;99208;-71
2022/06/15 04:06:08;;;;;;;10.15;4.57;;;;;;;;;;5008730;28;99318;-72
2022/06/15 04:08:43;;;;;;;7.03;5.40;;;;;;;;;;5009224;28;101849;-71
2022/06/15 04:14:14;;;;;;;6.50;5.03;;;;;;;;;;5009237;28;98658;-72
2022/06/15 04:16:44;;;;;;;7.55;4.95;;;;;;;;;;5001486;28;101042;-71
2022/06/15 04:19:11;;;;;;;7.28;5.13;;;;;;;;;;5007747;28;102442;-72
2022/06/15 04:21:43;;;;;;;5.00;4.50;;;;;;;;;;5008882;28;98757;-72
2022/06/15 04:24:11;;;;;;;9.85;4.72;;;;;;;;;;5012305;28;101333;-72
2022/06/15 04:26:41;;;;;;;7.40;4.82;;;;;;;;;;5008625;28;98776;-72
2022/06/15 04:29:10;;;;;;;20.15;4.35;;;;;;;;;;5009141;28;100854;-72
2022/06/15 04:31:40;;;;;;;8.00;5.03;;;;;;;;;;5006882;28;102305;-72
2022/06/15 04:34:09;;;;;;;12.10;4.78;;;;;;;;;;5008755;28;98768;-72
2022/06/15 04:36:36;;;;;;;8.77;5.30;;;;;;;;;;5008106;28;101655;-72
2022/06/15 04:39:02;;;;;;;11.52;4.95;;;;;;;;;;5008191;28;101587;-72
2022/06/15 04:41:41;;;;;;;9.25;4.93;;;;;;;;;;5008660;28;98708;-72
2022/06/15 04:44:08;;;;;;;5.40;4.22;;;;;;;;;;5020509;28;99023;-72
2022/06/15 04:46:37;;;;;;;14.63;4.53;;;;;;;;;;5007914;28;98695;-72
2022/06/15 04:49:07;;;;;;;8.10;4.90;;;;;;;;;;5005707;28;100942;-72
2022/06/15 04:51:54;;;;;;;7.35;4.38;;;;;;;;;;5007149;28;99275;-72
2022/06/15 04:54:22;;;;;;;7.53;4.55;;;;;;;;;;5007431;28;99054;-72
2022/06/15 04:56:52;;;;;;;7.15;4.35;;;;;;;;;;5007946;28;100825;-72
2022/06/15 04:59:19;;;;;;;11.60;4.35;;;;;;;;;;5007781;28;99238;-72
2022/06/15 05:01:49;;;;;;;10.60;5.28;;;;;;;;;;5008121;28;99456;-72
2022/06/15 05:04:18;;;;;;;11.82;4.50;;;;;;;;;;5007771;28;100799;-72
2022/06/15 05:06:44;;;;;;;12.40;3.97;;;;;;;;;;5010600;28;101904;-72
2022/06/15 05:09:12;;;;;;;6.50;4.47;;;;;;;;;;5007969;28;102060;-72
2022/06/15 05:11:40;;;;;;;6.10;4.18;;;;;;;;;;5007705;28;101730;-72
2022/06/15 05:14:07;;;;;;;7.00;4.57;;;;;;;;;;5009209;28;98220;-72
2022/06/15 05:16:39;;;;;;;5.82;4.35;;;;;;;;;;5008153;28;100629;-72
2022/06/15 05:19:11;;;;;;;8.35;4.50;;;;;;;;;;5007979;28;102138;-72
2022/06/15 05:21:38;;;;;;;5.85;4.30;;;;;;;;;;5006743;28;101406;-72
2022/06/15 05:24:06;;;;;;;10.68;4.35;;;;;;;;;;5008056;28;100626;-72
2022/06/15 05:26:55;;;;;;;9.85;4.75;;;;;;;;;;5007635;28;101131;-72
2022/06/15 05:29:22;;;;;;;9.35;4.05;;;;;;;;;;5010731;28;98616;-71
2022/06/15 05:31:54;;;;;;;9.35;4.00;;;;;;;;;;4998845;28;99265;-72
2022/06/15 05:34:21;;;;;;;10.10;3.90;;;;;;;;;;5008498;28;98898;-72
2022/06/15 05:36:47;;;;;;;14.50;4.40;;;;;;;;;;5007742;28;99883;-72
2022/06/15 05:39:14;;;;;;;8.23;4.00;;;;;;;;;;5007976;28;100451;-72
2022/06/15 05:41:43;;;;;;;8.80;3.90;;;;;;;;;;5001808;28;99085;-72
2022/06/15 05:44:21;;;;;;;8.68;3.75;;;;;;;;;;5006304;28;100300;-72
2022/06/15 05:46:54;;;;;;;7.00;3.55;;;;;;;;;;5005932;28;100871;-72
2022/06/15 05:49:40;;;;;;;8.68;3.47;;;;;;;;;;5006929;28;99009;-72
2022/06/15 05:52:08;;;;;;;5.35;3.30;;;;;;;;;;5008780;28;101193;-73
2022/06/15 05:54:38;;;;;;;9.00;3.33;;;;;;;;;;5007589;28;100355;-71
2022/06/15 05:57:18;;;;;;;7.85;3.70;;;;;;;;;;4996763;28;101135;-72
2022/06/15 05:59:45;;;;;;;6.00;3.47;;;;;;;;;;4992736;28;100711;-72
2022/06/15 06:02:12;;;;;;;7.95;3.40;;;;;;;;;;5001499;28;98598;-71
2022/06/15 06:04:39;;;;;;;4.82;2.67;;;;;;;;;;5004103;28;99125;-71
2022/06/15 06:07:06;;;;;;;4.63;2.97;;;;;;;;;;5002146;28;100460;-71
2022/06/15 06:09:33;;;;;;;6.03;2.95;;;;;;;;;;4999314;28;100916;-72
2022/06/15 06:11:59;;;;;;;6.90;3.33;;;;;;;;;;4998230;28;99942;-72
2022/06/15 06:14:26;;;;;;;9.98;3.40;;;;;;;;;;5003175;28;100258;-72
2022/06/15 06:16:52;;;;;;;11.23;3.50;;;;;;;;;;4989990;28;100084;-71
2022/06/15 06:19:19;;;;;;;7.90;3.35;;;;;;;;;;4993664;28;100424;-71
2022/06/15 06:21:45;;;;;;;4.47;2.85;;;;;;;;;;5008585;28;99256;-71
2022/06/15 06:24:11;;;;;;;7.63;3.08;;;;;;;;;;4999845;28;99095;-71
2022/06/15 06:26:38;;;;;;;6.28;2.95;;;;;;;;;;5000594;28;100340;-72
2022/06/15 06:29:05;;;;;;;8.85;3.20;;;;;;;;;;4998157;28;97811;-72
2022/06/15 06:31:32;;;;;;;7.57;3.13;;;;;;;;;;4987774;28;101660;-72
2022/06/15 06:33:58;;;;;;;10.27;3.25;;;;;;;;;;4993751;28;99479;-72
2022/06/15 06:36:29;;;;;;;6.07;3.13;;;;;;;;;;5000319;28;101226;-71
2022/06/15 06:38:56;;;;;;;10.57;2.83;;;;;;;;;;5004769;28;99409;-72
2022/06/15 06:41:23;;;;;;;6.82;3.05;;;;;;;;;;5000169;28;100118;-72
2022/06/15 06:43:49;;;;;;;9.82;3.15;;;;;;;;;;4991060;28;100236;-72
2022/06/15 06:46:16;;;;;;;9.25;3.33;;;;;;;;;;4991461;28;102309;-71
2022/06/15 06:48:43;;;;;;;6.35;2.50;;;;;;;;;;5007409;28;98621;-71
2022/06/15 06:51:10;;;;;;;6.88;3.08;;;;;;;;;;4998915;28;99149;-72
2022/06/15 06:53:36;;;;;;;7.35;3.28;;;;;;;;;;4995450;28;99802;-71
2022/06/15 06:56:04;;;;;;;6.65;3.00;;;;;;;;;;5000291;28;100270;-71
2022/06/15 06:58:30;;;;;;;9.07;2.67;;;;;;;;;;4989599;28;100592;-71
2022/06/15 07:00:57;;;;;;;6.78;2.92;;;;;;;;;;4996193;28;99342;-71
2022/06/15 07:03:23;;;;;;;8.77;2.78;;;;;;;;;;4995937;28;101705;-71
2022/06/15 07:05:50;;;;;;;10.57;2.60;;;;;;;;;;4994246;28;100180;-72
2022/06/15 07:08:17;;;;;;;10.18;2.88;;;;;;;;;;5004854;28;98593;-72
2022/06/15 07:10:43;;;;;;;6.20;2.70;;;;;;;;;;5011160;28;99856;-72
2022/06/15 07:13:09;;;;;;;7.55;2.60;;;;;;;;;;5002899;28;99529;-72
2022/06/15 07:15:36;;;;;;;6.50;2.78;;;;;;;;;;5010353;28;98545;-72
2022/06/15 07:18:03;;;;;;;8.77;2.65;;;;;;;;;;5015327;28;100477;-72
2022/06/15 07:20:30;;;;;;;6.50;2.50;;;;;;;;;;5002622;28;98965;-72
2022/06/15 07:22:58;;;;;;;6.32;2.50;;;;;;;;;;5010954;28;99140;-72
2022/06/15 07:25:27;;;;;;;15.40;3.47;;;;;;;;;;4995984;28;100125;-72
2022/06/15 07:27:54;;;;;;;6.68;2.50;;;;;;;;;;5000071;28;98566;-74
2022/06/15 07:30:23;;;;;;;13.43;2.25;;;;;;;;;;5011064;28;98926;-72
2022/06/15 07:32:50;;;;;;;5.72;2.40;;;;;;;;;;5009842;28;100221;-72
2022/06/15 07:35:18;;;;;;;4.32;2.00;;;;;;;;;;5005570;28;99010;-72
2022/06/15 07:37:45;;;;;;;9.30;2.13;;;;;;;;;;4998672;28;98958;-73
2022/06/15 07:40:31;;;;;;;9.70;2.50;;;;;;;;;;4998859;28;100775;-74
2022/06/15 07:42:58;;;;;;;4.43;2.45;;;;;;;;;;4991973;28;100444;-71
2022/06/15 07:45:26;;;;;;;8.18;1.98;;;;;;;;;;5003398;28;99351;-71
2022/06/15 07:50:42;;;;;;;6.38;2.42;;;;;;;;;;5003890;28;99333;-72
2022/06/15 07:53:10;;;;;;;6.00;2.40;;;;;;;;;;5010499;28;100273;-72
2022/06/15 07:55:38;;;;;;;8.70;2.35;;;;;;;;;;5009667;28;99095;-73
2022/06/15 07:58:06;;;;;;;6.38;2.30;;;;;;;;;;5010245;28;101190;-73
2022/06/15 08:00:33;;;;;;;5.20;2.50;;;;;;;;;;5010478;28;101010;-72
2022/06/15 08:03:01;;;;;;;6.95;2.58;;;;;;;;;;5013246;28;98564;-72
2022/06/15 08:05:29;;;;;;;11.80;2.35;;;;;;;;;;5002267;28;100393;-72
2022/06/15 08:08:03;;;;;;;4.50;2.25;;;;;;;;;;5010950;28;97795;-73
2022/06/15 08:10:30;;;;;;;5.18;2.30;;;;;;;;;;5008759;28;98526;-72
2022/06/15 08:12:56;;;;;;;5.22;2.05;;;;;;;;;;5010207;28;99351;-73
2022/06/15 08:15:23;;;;;;;5.10;2.40;;;;;;;;;;5010019;28;99410;-73
2022/06/15 08:17:51;;;;;;;5.95;2.20;;;;;;;;;;5009489;28;102241;-72
2022/06/15 08:20:21;;;;;;;6.50;2.15;;;;;;;;;;5009953;28;99461;-73
2022/06/15 08:22:49;;;;;;;6.20;2.80;;;;;;;;;;5010200;28;99159;-72
2022/06/15 08:25:18;;;;;;;5.43;2.20;;;;;;;;;;5012506;28;100739;-72
2022/06/15 08:27:45;;;;;;;5.95;2.42;;;;;;;;;;5010279;28;98512;-72
2022/06/15 08:30:12;;;;;;;2.67;1.83;;;;;;;;;;5010436;28;99902;-72
2022/06/15 08:32:38;;;;;;;7.40;2.30;;;;;;;;;;5009276;28;100859;-72
2022/06/15 08:35:06;;;;;;;4.70;1.90;;;;;;;;;;5004977;28;98502;-73
2022/06/15 08:37:32;;;;;;;6.53;2.45;;;;;;;;;;5008764;28;101745;-73
2022/06/15 08:39:59;;;;;;;4.75;2.10;;;;;;;;;;5008796;28;103096;-72
2022/06/15 08:42:28;;;;;;;3.97;1.92;;;;;;;;;;5010251;28;98797;-72
2022/06/15 08:45:06;;;;;;;4.85;2.35;;;;;;;;;;5008616;28;99087;-72
2022/06/15 08:47:57;;;;;;;6.05;2.47;;;;;;;;;;5012850;28;100662;-72
2022/06/15 08:50:24;;;;;;;;;;;;;;;;;;5010740;28;100160;-72
2022/06/15 08:53:00;;;;;;;4.38;2.10;;;;;;;;;;5004854;28;123624;-72
2022/06/15 08:55:36;;;;;;;5.57;2.35;;;;;;;;;;5009062;28;100172;-72
2022/06/15 08:58:11;;;;;;;3.50;1.90;;;;;;;;;;5003617;28;100193;-72
2022/06/15 09:00:39;;;;;;;6.18;1.98;;;;;;;;;;5007947;28;100133;-72
2022/06/15 09:03:14;;;;;;;4.28;2.05;;;;;;;;;;5009996;28;98589;-71
2022/06/15 09:06:00;;;;;;;5.20;2.45;;;;;;;;;;5008838;28;100004;-72
2022/06/15 09:08:27;;;;;;;7.80;2.60;;;;;;;;;;5012616;28;100335;-72
2022/06/15 09:10:59;;;;;;;3.80;2.00;;;;;;;;;;5009619;28;99935;-72
2022/06/15 09:13:27;;;;;;;9.05;2.00;;;;;;;;;;5008535;28;100287;-72
2022/06/15 09:15:57;;;;;;;4.45;2.05;;;;;;;;;;5009352;28;98623;-72
2022/06/15 09:18:29;;;;;;;5.85;2.42;;;;;;;;;;5009927;28;99898;-72
2022/06/15 09:21:05;;;;;;;6.47;2.00;;;;;;;;;;5008374;28;100254;-72
2022/06/15 09:23:34;;;;;;;2.92;1.75;;;;;;;;;;5008596;28;97806;-72
2022/06/15 09:26:24;;;;;;;6.07;1.85;;;;;;;;;;5009456;28;98947;-72
2022/06/15 09:28:59;;;;;;;5.28;1.77;;;;;;;;;;5007958;28;100120;-71
2022/06/15 09:31:43;;;;;;;2.78;1.75;;;;;;;;;;5011105;28;99276;-71
2022/06/15 09:34:14;;;;;;;4.07;1.90;;;;;;;;;;5008244;28;100236;-72
2022/06/15 09:36:46;;;;;;;5.15;2.00;;;;;;;;;;5008083;28;99057;-72
2022/06/15 09:39:13;;;;;;;5.80;1.83;;;;;;;;;;5009363;28;99970;-72
2022/06/15 09:41:46;;;;;;;4.18;1.88;;;;;;;;;;5007907;28;100209;-72
2022/06/15 09:44:17;;;;;;;4.82;1.88;;;;;;;;;;5009129;28;98667;-72
2022/06/15 09:47:13;;;;;;;4.00;1.67;;;;;;;;;;5009064;28;100007;-72
2022/06/15 09:49:44;;;;;;;4.47;2.13;;;;;;;;;;5008252;28;99406;-72
2022/06/15 09:52:19;;;;;;;6.93;1.80;;;;;;;;;;5008882;28;98539;-72
2022/06/15 09:54:52;;;;;;;2.33;1.55;;;;;;;;;;5012038;28;99858;-72
2022/06/15 09:57:19;;;;;;;3.58;1.90;;;;;;;;;;5007807;28;100528;-72
2022/06/15 09:59:46;;;;;;;5.70;1.90;;;;;;;;;;5008646;28;100869;-71
2022/06/15 10:02:21;;;;;;;3.53;1.80;;;;;;;;;;5007213;28;100757;-72
2022/06/15 10:04:49;;;;;;;8.15;2.10;;;;;;;;;;5008663;28;98511;-73
2022/06/15 10:07:27;;;;;;;5.65;2.30;;;;;;;;;;5008233;28;100063;-73
2022/06/15 10:10:23;;;;;;;8.65;1.85;;;;;;;;;;5007486;28;101808;-73
2022/06/15 10:12:58;;;;;;;26.98;3.13;;;;;;;;;;4993496;28;98822;-73
2022/06/15 10:15:26;;;;;;;3.70;1.67;;;;;;;;;;5009210;28;99303;-73
2022/06/15 10:17:56;;;;;;;4.50;1.70;;;;;;;;;;5010946;28;100194;-73
2022/06/15 10:20:35;;;;;;;5.15;2.22;;;;;;;;;;5008092;28;99837;-72
2022/06/15 10:23:05;;;;;;;4.40;1.73;;;;;;;;;;5007850;28;99911;-72
2022/06/15 10:25:35;;;;;;;6.15;1.90;;;;;;;;;;5006328;28;98552;-72
2022/06/15 10:28:08;;;;;;;4.65;2.08;;;;;;;;;;5008629;28;99837;-72
2022/06/15 10:33:37;;;;;;;5.87;1.83;;;;;;;;;;5009483;28;118421;-72
2022/06/15 10:36:14;;;;;;;5.50;2.03;;;;;;;;;;5006009;28;100933;-73
2022/06/15 10:38:49;;;;;;;8.05;1.95;;;;;;;;;;5010397;28;100395;-72
2022/06/15 10:44:02;;;;;;;3.88;2.10;;;;;;;;;;5010986;28;99396;-71
2022/06/15 10:46:48;;;;;;;2.92;1.40;;;;;;;;;;5008361;28;98597;-71
2022/06/15 10:49:14;;;;;;;3.33;1.83;;;;;;;;;;5011220;28;100377;-71
2022/06/15 10:51:41;;;;;;;4.95;1.73;;;;;;;;;;4991098;28;100062;-71
2022/06/15 10:54:16;;;;;;;4.90;1.42;;;;;;;;;;5000874;28;99071;-71
2022/06/15 11:02:40;;;;;;;3.70;1.90;;;;;;;;;;4998373;28;101186;-71
2022/06/15 11:05:09;;;;;;;5.63;2.50;;;;;;;;;;5005857;28;100126;-71
2022/06/15 11:07:38;;;;;;;4.28;1.73;;;;;;;;;;5000421;28;97864;-71
2022/06/15 11:10:08;;;;;;;7.80;1.80;;;;;;;;;;5012010;28;100604;-71
2022/06/15 11:12:38;;;;;;;7.20;2.08;;;;;;;;;;5011397;28;99224;-70
2022/06/15 11:15:12;;;;;;;9.00;1.77;;;;;;;;;;5011054;28;99347;-71
2022/06/15 11:20:35;;;;;;;4.97;1.67;;;;;;;;;;4997677;28;100338;-70
2022/06/15 11:23:10;;;;;;;3.33;1.55;;;;;;;;;;5010666;28;98531;-70
2022/06/15 11:25:43;;;;;;;4.63;2.10;;;;;;;;;;5006086;28;99993;-70
2022/06/15 11:28:13;;;;;;;2.65;1.60;;;;;;;;;;5002597;28;98571;-70
2022/06/15 11:30:44;;;;;;;8.23;2.00;;;;;;;;;;5011333;27;99692;-70
2022/06/15 11:33:51;;;;;;;2.88;2.00;;;;;;;;;;5004274;28;98892;-70
2022/06/15 11:36:17;;;;;;;3.80;2.05;;;;;;;;;;4978640;28;99062;-70
2022/06/15 11:38:56;;;;;;;3.97;2.10;;;;;;;;;;5002303;28;99823;-70
2022/06/15 11:41:49;;;;;;;4.55;2.00;;;;;;;;;;5002738;28;100071;-70
2022/06/15 11:44:35;;;;;;;5.07;2.15;;;;;;;;;;5000098;28;98709;-70
2022/06/15 11:47:21;;;;;;;5.78;2.15;;;;;;;;;;5009891;28;99087;-70
2022/06/15 11:50:01;;;;;;;2.92;1.67;;;;;;;;;;5012535;28;100474;-70
2022/06/15 11:52:34;;;;;;;8.02;1.70;;;;;;;;;;5003879;28;99109;-70
2022/06/15 11:55:20;;;;;;;6.57;2.00;;;;;;;;;;5009103;28;99350;-69
2022/06/15 11:57:55;;;;;;;8.57;2.45;;;;;;;;;;5010641;28;98618;-69
2022/06/15 12:00:26;;;;;;;4.97;2.30;;;;;;;;;;5011115;28;99948;-70
2022/06/15 12:02:54;;;;;;;5.63;2.15;;;;;;;;;;5009489;28;100352;-70
2022/06/15 12:05:27;;;;;;;5.53;1.83;;;;;;;;;;5010126;28;98589;-70
2022/06/15 12:07:59;;;;;;;4.57;1.98;;;;;;;;;;5009939;28;99405;-70
2022/06/15 12:10:26;;;;;;;4.35;2.22;;;;;;;;;;5008100;28;100172;-70
2022/06/15 12:12:58;;;;;;;4.50;2.20;;;;;;;;;;5011601;28;98630;-71
2022/06/15 12:15:37;;;;;;;3.50;1.77;;;;;;;;;;5007531;28;99716;-71
2022/06/15 12:18:15;;;;;;;8.43;1.83;;;;;;;;;;5002366;28;98581;-70
2022/06/15 12:20:56;;;;;;;4.43;1.70;;;;;;;;;;4998815;28;98830;-70
2022/06/15 12:23:40;;;;;;;4.85;2.28;;;;;;;;;;4999555;28;100039;-70
2022/06/15 12:26:22;;;;;;;4.65;1.88;;;;;;;;;;5010770;28;97943;-70
2022/06/15 12:28:48;;;;;;;3.47;1.87;;;;;;;;;;5002868;28;98768;-70
2022/06/15 12:31:33;;;;;;;7.63;1.83;;;;;;;;;;5001444;28;99338;-70
2022/06/15 12:34:00;;;;;;;3.13;1.63;;;;;;;;;;5007606;27;100777;-71
2022/06/15 12:36:34;;;;;;;3.70;1.70;;;;;;;;;;5003200;28;100388;-71
2022/06/15 12:39:01;;;;;;;4.22;1.83;;;;;;;;;;4994882;28;100342;-71
2022/06/15 12:44:25;;;;;;;7.03;2.28;;;;;;;;;;5001233;28;100054;-71
2022/06/15 12:46:56;;;;;;;5.07;2.00;;;;;;;;;;5009806;28;98584;-73
2022/06/15 12:50:01;;;;;;;4.95;1.98;;;;;;;;;;4994011;28;99422;-72
2022/06/15 12:52:56;;;;;;;10.02;3.05;;;;;;;;;;5004438;28;99561;-72
2022/06/15 12:55:22;;;;;;;1.83;1.60;;;;;;;;;;4987131;28;99054;-72
2022/06/15 12:58:07;;;;;;;3.15;1.60;;;;;;;;;;5007888;28;99990;-72
2022/06/15 13:00:41;;;;;;;5.03;2.20;;;;;;;;;;5011811;28;100732;-73
2022/06/15 13:03:11;;;;;;;7.15;2.13;;;;;;;;;;4992546;28;100715;-72
2022/06/15 13:05:38;;;;;;;9.32;1.88;;;;;;;;;;4992721;28;100376;-70
2022/06/15 13:08:07;;;;;;;13.68;3.25;;;;;;;;;;4994726;28;99595;-70
2022/06/15 13:10:57;;;;;;;14.38;1.98;;;;;;;;;;5002229;27;99014;-71
2022/06/15 13:13:23;;;;;;;6.50;2.10;;;;;;;;;;5005271;28;101013;-70
2022/06/15 13:15:50;;;;;;;2.33;1.48;;;;;;;;;;4997835;28;100107;-71
2022/06/15 13:18:18;;;;;;;3.55;1.83;;;;;;;;;;4999972;28;99898;-70
2022/06/15 13:20:45;;;;;;;2.83;1.60;;;;;;;;;;4994629;28;100224;-71
2022/06/15 13:23:23;;;;;;;4.22;1.80;;;;;;;;;;4994754;28;98565;-71
2022/06/15 13:25:51;;;;;;;4.25;1.85;;;;;;;;;;4993924;28;101058;-71
2022/06/15 13:28:19;;;;;;;3.08;2.17;;;;;;;;;;5000760;28;98698;-71
2022/06/15 13:30:48;;;;;;;4.72;1.50;;;;;;;;;;5004030;28;100047;-71
2022/06/15 13:33:15;;;;;;;2.58;1.90;;;;;;;;;;5000196;28;100336;-72
2022/06/15 13:35:43;;;;;;;4.32;1.90;;;;;;;;;;4997422;28;99121;-71
2022/06/15 13:38:27;;;;;;;8.10;2.28;;;;;;;;;;4998809;28;100064;-72
2022/06/15 13:40:54;;;;;;;3.60;1.50;;;;;;;;;;4996298;28;99415;-71
2022/06/15 13:43:23;;;;;;;3.15;1.65;;;;;;;;;;5010706;28;97915;-71
2022/06/15 13:45:51;;;;;;;3.05;1.88;;;;;;;;;;5000011;28;100128;-73
2022/06/15 13:48:21;;;;;;;10.27;2.00;;;;;;;;;;4999161;28;100215;-73
2022/06/15 13:51:00;;;;;;;7.10;2.30;;;;;;;;;;5003555;28;100023;-72
2022/06/15 13:53:26;;;;;;;4.15;1.92;;;;;;;;;;4998115;28;99984;-71
2022/06/15 13:56:01;;;;;;;3.33;1.90;;;;;;;;;;4989662;28;98658;-72
2022/06/15 13:58:27;;;;;;;2.63;2.00;;;;;;;;;;4993102;28;101446;-71
2022/06/15 14:01:11;;;;;;;5.95;2.00;;;;;;;;;;4988765;28;100663;-72
2022/06/15 14:03:45;;;;;;;5.30;2.17;;;;;;;;;;4992225;28;99073;-71
2022/06/15 14:06:18;;;;;;;11.15;2.35;;;;;;;;;;5011576;28;99895;-72
2022/06/15 14:08:47;;;;;;;2.05;1.80;;;;;;;;;;5000955;28;97985;-71
2022/06/15 14:11:36;;;;;;;3.50;2.00;;;;;;;;;;5005096;28;100999;-72
2022/06/15 14:14:02;;;;;;;6.18;1.70;;;;;;;;;;5015242;28;101198;-72
2022/06/15 14:16:48;;;;;;;25.20;4.70;;;;;;;;;;5006038;28;100459;-72
2022/06/15 14:19:25;;;;;;;3.00;2.05;;;;;;;;;;5006812;28;101116;-71
2022/06/15 14:22:02;;;;;;;2.90;1.90;;;;;;;;;;4996640;28;100527;-72
2022/06/15 14:24:30;;;;;;;4.10;1.80;;;;;;;;;;4998142;28;98809;-72
2022/06/15 14:26:57;;;;;;;7.07;2.03;;;;;;;;;;5000733;28;99970;-71
2022/06/15 14:29:30;;;;;;;3.05;2.05;;;;;;;;;;5007251;28;100565;-72
2022/06/15 14:31:57;;;;;;;4.65;1.90;;;;;;;;;;5006675;28;100074;-72
2022/06/15 14:34:24;;;;;;;6.40;2.45;;;;;;;;;;5013781;28;99740;-72
2022/06/15 14:36:55;;;;;;;9.85;1.80;;;;;;;;;;4997934;28;98544;-72
2022/06/15 14:39:36;;;;;;;3.83;1.63;;;;;;;;;;5006957;28;99826;-73
2022/06/15 14:42:22;;;;;;;3.63;1.55;;;;;;;;;;4996012;28;101288;-72
2022/06/15 14:44:49;;;;;;;6.10;1.70;;;;;;;;;;4994713;28;99127;-72
2022/06/15 14:47:17;;;;;;;4.35;1.50;;;;;;;;;;5007660;28;99641;-72
2022/06/15 14:49:49;;;;;;;6.95;1.85;;;;;;;;;;5006156;28;99519;-72
2022/06/15 14:52:18;;;;;;;4.33;1.90;;;;;;;;;;5015245;28;98935;-72
2022/06/15 14:54:46;;;;;;;8.45;2.30;;;;;;;;;;5005946;28;99368;-72
2022/06/15 14:57:20;;;;;;;1.75;1.63;;;;;;;;;;5006382;28;98698;-72
2022/06/15 14:59:48;;;;;;;3.20;1.88;;;;;;;;;;5013408;28;98940;-72
2022/06/15 15:02:14;;;;;;;4.82;2.20;;;;;;;;;;5008282;28;99339;-71
2022/06/15 15:04:43;;;;;;;3.40;1.80;;;;;;;;;;5005084;28;98540;-71
2022/06/15 15:10:16;;;;;;;3.92;1.85;;;;;;;;;;5005487;28;99453;-72
2022/06/15 15:12:44;;;;;;;5.00;1.85;;;;;;;;;;5004957;28;100084;-71
2022/06/15 15:15:10;;;;;;;2.72;1.60;;;;;;;;;;5001300;28;100074;-71
2022/06/15 15:17:47;;;;;;;8.48;2.20;;;;;;;;;;5005024;28;98641;-71
2022/06/15 15:20:36;;;;;;;9.07;1.83;;;;;;;;;;5005192;28;99111;-71
2022/06/15 15:23:03;;;;;;;5.43;2.30;;;;;;;;;;4994465;28;100142;-71
2022/06/15 15:25:45;;;;;;;5.18;1.67;;;;;;;;;;4998351;28;97841;-71
2022/06/15 15:34:31;;;;;;;5.80;2.10;;;;;;;;;;4983635;28;99297;-71